Time;durP1;ratioP1;P1;durP2;ratioP2;P2;SDS_P1;SDS_P2;PMS_P1;PMS_P2;Temp;Humidity;BMP_temperature;BMP_pressure;BME280_temperature;BME280_humidity;BME280_pressure;Samples;Min_cycle;Max_cycle;Signal;HPM_P1;HPM_P2
2021/12/29 00:00:09;;;;;;;5.82;2.30;;;11.10;87.20;;;;;;5072674;28;20035;-71
2021/12/29 00:02:38;;;;;;;5.57;2.28;;;11.10;87.20;;;;;;5066836;28;20134;-71
2021/12/29 00:05:05;;;;;;;6.38;2.22;;;11.10;87.10;;;;;;5072705;28;20518;-71
2021/12/29 00:07:30;;;;;;;5.25;2.30;;;11.10;87.00;;;;;;5075773;28;20028;-71
2021/12/29 00:09:59;;;;;;;4.45;2.10;;;11.00;87.00;;;;;;5060247;28;20036;-71
2021/12/29 00:12:26;;;;;;;6.40;2.22;;;11.10;87.10;;;;;;5078224;28;20107;-71
2021/12/29 00:14:53;;;;;;;7.57;2.67;;;11.00;87.00;;;;;;5076708;28;20723;-71
2021/12/29 00:17:19;;;;;;;6.70;2.75;;;11.10;87.10;;;;;;5077980;28;20028;-71
2021/12/29 00:19:45;;;;;;;6.15;2.38;;;11.00;87.10;;;;;;5059943;28;20032;-71
2021/12/29 00:22:11;;;;;;;8.02;2.70;;;11.10;87.10;;;;;;5077161;28;20360;-71
2021/12/29 00:24:37;;;;;;;6.00;2.38;;;11.10;87.00;;;;;;5057752;28;20063;-71
2021/12/29 00:27:04;;;;;;;6.78;2.83;;;11.10;87.10;;;;;;5076931;28;20025;-71
2021/12/29 00:29:30;;;;;;;6.93;2.60;;;11.00;86.90;;;;;;5077481;28;20043;-71
2021/12/29 00:32:19;;;;;;;5.88;2.60;;;11.00;86.90;;;;;;5026061;28;20042;-71
2021/12/29 00:35:05;;;;;;;6.22;2.50;;;11.00;87.00;;;;;;5023482;28;20037;-71
2021/12/29 00:37:48;;;;;;;6.40;2.63;;;11.00;87.00;;;;;;5026932;28;20045;-71
2021/12/29 00:40:34;;;;;;;7.05;2.80;;;11.00;87.00;;;;;;5014961;28;20423;-71
2021/12/29 00:43:18;;;;;;;6.18;2.55;;;11.00;87.00;;;;;;5036619;28;20064;-71
2021/12/29 00:46:03;;;;;;;5.20;2.30;;;11.00;86.90;;;;;;5027156;28;20137;-71
2021/12/29 00:48:35;;;;;;;4.28;2.33;;;11.00;87.00;;;;;;5024924;28;20481;-71
2021/12/29 00:51:03;;;;;;;6.40;2.40;;;11.00;87.10;;;;;;5019047;28;20037;-71
2021/12/29 00:53:28;;;;;;;6.13;2.83;;;11.00;87.10;;;;;;5035819;28;20037;-71
2021/12/29 00:55:54;;;;;;;4.40;1.85;;;11.00;87.20;;;;;;5011231;28;20439;-71
2021/12/29 00:58:20;;;;;;;5.20;2.30;;;11.00;87.20;;;;;;5002137;28;20532;-71
2021/12/29 01:00:46;;;;;;;6.13;2.58;;;11.00;87.20;;;;;;5035281;28;20056;-71
2021/12/29 01:03:12;;;;;;;6.30;2.15;;;11.00;87.20;;;;;;5035145;28;20049;-71
2021/12/29 01:05:38;;;;;;;6.72;2.53;;;11.00;87.30;;;;;;5035168;28;20033;-71
2021/12/29 01:08:04;;;;;;;5.85;2.72;;;11.00;87.40;;;;;;5035279;28;20021;-71
2021/12/29 01:10:31;;;;;;;8.82;3.47;;;11.00;87.50;;;;;;5069713;28;20120;-71
2021/12/29 01:12:59;;;;;;;6.82;2.78;;;11.00;87.50;;;;;;5076927;28;20426;-71
2021/12/29 01:15:37;;;;;;;8.10;2.97;;;11.00;87.40;;;;;;5075864;28;20024;-71
2021/12/29 01:18:05;;;;;;;6.45;3.00;;;11.00;87.40;;;;;;5076048;28;20115;-71
2021/12/29 01:20:32;;;;;;;8.55;3.20;;;11.00;87.40;;;;;;5075500;28;20043;-71
2021/12/29 01:22:59;;;;;;;6.75;2.90;;;11.00;87.40;;;;;;5076632;28;20028;-71
2021/12/29 01:25:29;;;;;;;6.35;2.72;;;11.00;87.40;;;;;;5076703;28;20376;-71
2021/12/29 01:27:54;;;;;;;7.57;3.15;;;11.00;87.40;;;;;;5066181;28;20028;-71
2021/12/29 01:30:20;;;;;;;9.52;3.22;;;11.00;87.40;;;;;;5076524;28;20033;-72
2021/12/29 01:32:46;;;;;;;7.13;3.42;;;11.00;87.40;;;;;;5076200;28;20460;-71
2021/12/29 01:35:12;;;;;;;8.38;3.75;;;11.00;87.40;;;;;;5076192;28;20033;-71
2021/12/29 01:37:38;;;;;;;8.00;3.67;;;11.00;87.40;;;;;;5075883;28;20432;-71
2021/12/29 01:40:09;;;;;;;7.38;3.08;;;11.00;87.40;;;;;;5075680;28;20028;-71
2021/12/29 01:42:34;;;;;;;12.18;3.72;;;11.00;87.50;;;;;;5058160;28;20354;-71
2021/12/29 01:45:01;;;;;;;10.32;4.20;;;11.00;87.50;;;;;;5075637;28;20096;-71
2021/12/29 01:47:29;;;;;;;8.18;3.60;;;11.00;87.50;;;;;;5076219;28;20028;-71
2021/12/29 01:49:56;;;;;;;9.48;4.18;;;11.00;87.50;;;;;;5075202;28;20060;-71
2021/12/29 01:52:26;;;;;;;10.18;4.43;;;11.00;87.50;;;;;;5058312;28;20039;-71
2021/12/29 01:54:52;;;;;;;10.68;4.63;;;11.00;87.60;;;;;;5075224;28;20119;-74
2021/12/29 01:57:19;;;;;;;9.10;3.58;;;11.00;87.50;;;;;;5074078;28;20123;-71
2021/12/29 01:59:45;;;;;;;11.38;4.60;;;11.00;87.50;;;;;;5074885;28;20035;-72
2021/12/29 02:02:14;;;;;;;9.23;3.88;;;11.00;87.40;;;;;;5074813;28;20033;-71
2021/12/29 02:04:46;;;;;;;9.10;4.82;;;11.10;88.00;;;;;;5074849;28;20200;-72
2021/12/29 02:07:13;;;;;;;9.52;4.32;;;11.10;87.40;;;;;;5075062;28;20065;-71
2021/12/29 02:09:40;;;;;;;10.63;4.57;;;11.10;87.30;;;;;;5074744;28;20031;-71
2021/12/29 02:12:06;;;;;;;10.77;4.32;;;11.10;87.30;;;;;;5074992;28;20089;-72
2021/12/29 02:14:33;;;;;;;11.30;4.45;;;11.10;87.90;;;;;;5054723;28;20369;-71
2021/12/29 02:16:59;;;;;;;11.20;4.38;;;11.10;87.40;;;;;;5061021;28;20025;-71
2021/12/29 02:19:26;;;;;;;10.68;5.43;;;11.00;87.30;;;;;;5074481;28;20111;-71
2021/12/29 02:22:08;;;;;;;8.93;4.65;;;11.10;87.40;;;;;;5074999;28;20028;-71
2021/12/29 02:24:38;;;;;;;9.10;4.40;;;11.00;87.40;;;;;;5067035;28;20034;-72
2021/12/29 02:27:05;;;;;;;11.15;4.93;;;11.00;87.40;;;;;;5074465;28;20024;-70
2021/12/29 02:29:32;;;;;;;10.93;4.32;;;11.10;87.40;;;;;;5074044;28;20033;-70
2021/12/29 02:31:57;;;;;;;9.27;4.22;;;11.10;87.40;;;;;;5074730;28;20048;-70
2021/12/29 02:34:23;;;;;;;11.68;5.20;;;11.00;87.30;;;;;;5075444;28;20071;-72
2021/12/29 02:36:48;;;;;;;11.27;5.38;;;11.10;87.30;;;;;;5074348;28;20032;-72
2021/12/29 02:39:21;;;;;;;12.38;4.63;;;11.10;87.30;;;;;;5075405;28;20077;-72
2021/12/29 02:41:54;;;;;;;8.75;4.07;;;11.00;87.30;;;;;;5074159;28;20056;-72
2021/12/29 02:44:29;;;;;;;11.32;4.88;;;11.10;87.30;;;;;;5075201;28;20075;-72
2021/12/29 02:46:57;;;;;;;11.50;5.30;;;11.10;87.30;;;;;;5074496;28;20437;-72
2021/12/29 02:49:24;;;;;;;9.65;4.22;;;11.10;87.30;;;;;;5077092;28;20126;-72
2021/12/29 02:51:50;;;;;;;9.52;4.88;;;11.10;87.30;;;;;;5073545;28;20035;-72
2021/12/29 02:54:17;;;;;;;10.35;4.03;;;11.00;87.20;;;;;;5075032;28;20028;-70
2021/12/29 02:56:44;;;;;;;7.75;3.65;;;11.00;87.20;;;;;;5074654;28;20111;-70
2021/12/29 02:59:10;;;;;;;8.45;4.25;;;11.00;87.20;;;;;;5074110;28;20539;-70
2021/12/29 03:01:35;;;;;;;9.68;4.68;;;11.00;87.20;;;;;;5075120;28;20159;-72
2021/12/29 03:04:04;;;;;;;11.40;4.50;;;11.00;87.30;;;;;;5073032;28;20036;-72
2021/12/29 03:06:30;;;;;;;9.23;4.40;;;11.00;87.20;;;;;;5075149;28;20113;-72
2021/12/29 03:08:56;;;;;;;12.43;5.13;;;11.10;87.20;;;;;;5060398;28;20060;-73
2021/12/29 03:11:22;;;;;;;10.07;4.28;;;11.00;87.10;;;;;;5073987;28;20105;-72
2021/12/29 03:13:48;;;;;;;7.80;4.03;;;11.00;87.10;;;;;;5073439;28;20033;-72
2021/12/29 03:16:14;;;;;;;9.25;4.28;;;11.10;87.20;;;;;;5073656;28;20070;-73
2021/12/29 03:18:41;;;;;;;11.15;4.85;;;11.00;87.10;;;;;;5073389;28;20124;-72
2021/12/29 03:21:07;;;;;;;11.40;5.07;;;11.00;87.10;;;;;;5074345;28;20043;-72
2021/12/29 03:23:33;;;;;;;11.38;5.18;;;11.10;87.10;;;;;;5074316;28;20028;-72
2021/12/29 03:25:58;;;;;;;9.60;4.10;;;11.00;87.00;;;;;;5073530;28;20089;-72
2021/12/29 03:28:24;;;;;;;9.05;4.50;;;11.10;87.00;;;;;;5073445;28;20074;-72
2021/12/29 03:30:54;;;;;;;11.90;5.03;;;11.10;87.00;;;;;;5052971;28;20354;-72
2021/12/29 03:33:20;;;;;;;12.70;5.40;;;11.10;87.10;;;;;;5073627;28;20024;-72
2021/12/29 03:35:52;;;;;;;11.10;5.07;;;11.10;87.10;;;;;;5073430;28;20127;-72
2021/12/29 03:38:24;;;;;;;10.23;4.57;;;11.10;87.00;;;;;;5056955;28;20047;-72
2021/12/29 03:40:50;;;;;;;;;;;11.10;87.10;;;;;;5074485;28;20033;-72
2021/12/29 03:43:17;;;;;;;8.70;3.80;;;11.10;87.00;;;;;;5071868;28;19922;-72
2021/12/29 03:45:45;;;;;;;9.57;4.07;;;11.00;87.10;;;;;;5073413;28;20028;-72
2021/12/29 03:48:13;;;;;;;9.85;3.72;;;11.00;87.10;;;;;;5072924;28;20029;-72
2021/12/29 03:50:39;;;;;;;9.85;3.95;;;11.10;87.10;;;;;;5056372;28;20044;-72
2021/12/29 03:53:05;;;;;;;13.73;4.28;;;11.10;87.20;;;;;;5073476;28;20055;-72
2021/12/29 03:55:31;;;;;;;8.68;3.15;;;11.00;87.20;;;;;;5074130;28;20036;-72
2021/12/29 03:57:57;;;;;;;8.98;3.25;;;11.00;87.20;;;;;;5073271;28;20059;-72
2021/12/29 04:00:23;;;;;;;10.77;3.80;;;11.00;87.20;;;;;;5072592;28;20028;-72
2021/12/29 04:02:49;;;;;;;8.52;3.20;;;11.00;87.20;;;;;;5072854;28;20457;-72
2021/12/29 04:05:18;;;;;;;10.52;4.00;;;11.00;87.20;;;;;;5073687;28;20084;-72
2021/12/29 04:07:44;;;;;;;9.65;3.75;;;11.00;87.20;;;;;;5073162;28;20044;-72
2021/12/29 04:10:11;;;;;;;10.00;3.83;;;11.00;87.20;;;;;;5055662;28;20021;-72
2021/12/29 04:12:39;;;;;;;11.57;4.07;;;11.00;87.20;;;;;;5072666;28;20025;-72
2021/12/29 04:15:06;;;;;;;10.68;4.22;;;11.00;87.20;;;;;;5072734;28;20368;-72
2021/12/29 04:17:36;;;;;;;9.63;4.18;;;11.00;87.20;;;;;;5070697;28;20043;-72
2021/12/29 04:22:56;;;;;;;14.32;4.32;;;11.00;87.30;;;;;;5070544;28;20043;-72
2021/12/29 04:25:24;;;;;;;8.43;3.90;;;11.00;87.30;;;;;;5070252;28;20028;-72
2021/12/29 04:27:55;;;;;;;10.55;4.10;;;11.00;87.30;;;;;;5066903;28;20025;-72
2021/12/29 04:30:22;;;;;;;10.25;4.13;;;11.00;87.30;;;;;;5056774;28;20041;-72
2021/12/29 04:32:50;;;;;;;9.50;4.13;;;11.00;87.30;;;;;;5054973;28;20373;-72
2021/12/29 04:35:15;;;;;;;11.13;4.10;;;11.00;87.30;;;;;;5055849;28;20029;-72
2021/12/29 04:37:41;;;;;;;10.98;3.70;;;11.00;87.20;;;;;;5051347;28;20044;-72
2021/12/29 04:40:07;;;;;;;9.15;3.63;;;11.00;87.20;;;;;;5060697;28;20449;-72
2021/12/29 04:42:34;;;;;;;10.07;3.80;;;11.00;87.20;;;;;;5064036;28;20059;-72
2021/12/29 04:45:00;;;;;;;9.18;3.25;;;11.00;87.10;;;;;;5052308;28;20116;-72
2021/12/29 04:47:29;;;;;;;11.73;4.07;;;11.00;87.20;;;;;;5055427;28;20041;-72
2021/12/29 04:50:01;;;;;;;11.85;3.92;;;11.00;87.20;;;;;;5056481;28;20503;-72
2021/12/29 04:52:29;;;;;;;8.40;3.85;;;11.00;87.20;;;;;;5054982;28;20029;-72
2021/12/29 04:54:55;;;;;;;10.18;3.60;;;11.00;87.10;;;;;;5059137;28;20032;-72
2021/12/29 04:57:21;;;;;;;8.57;3.22;;;11.00;87.10;;;;;;5057229;28;20048;-72
2021/12/29 04:59:47;;;;;;;9.52;3.38;;;11.00;87.10;;;;;;5059228;28;20032;-72
2021/12/29 05:02:13;;;;;;;6.88;3.10;;;11.00;87.10;;;;;;5059549;28;20089;-72
2021/12/29 05:04:56;;;;;;;10.90;3.45;;;11.00;87.10;;;;;;5083865;28;20112;-72
2021/12/29 05:10:07;;;;;;;10.90;3.38;;;11.00;87.00;;;;;;5055832;28;20484;-72
2021/12/29 05:12:32;;;;;;;9.10;3.58;;;11.00;86.90;;;;;;5061003;28;20028;-72
2021/12/29 05:14:58;;;;;;;7.53;3.33;;;11.00;87.00;;;;;;5062909;28;20515;-72
2021/12/29 05:17:24;;;;;;;8.43;3.47;;;11.00;87.00;;;;;;5058357;28;20035;-72
2021/12/29 05:19:49;;;;;;;6.95;3.35;;;11.00;87.00;;;;;;5054796;28;20082;-72
2021/12/29 05:22:15;;;;;;;9.32;3.35;;;11.00;87.00;;;;;;5055624;28;20033;-72
2021/12/29 05:24:41;;;;;;;7.07;3.45;;;11.00;87.00;;;;;;5070253;28;20349;-72
2021/12/29 05:27:06;;;;;;;9.45;3.42;;;11.00;87.00;;;;;;5075348;28;20044;-72
2021/12/29 05:29:32;;;;;;;10.25;3.80;;;11.00;87.00;;;;;;5058780;28;20036;-72
2021/12/29 05:31:58;;;;;;;8.93;4.07;;;11.00;87.00;;;;;;5058276;28;20055;-70
2021/12/29 05:34:23;;;;;;;8.30;3.25;;;10.90;86.90;;;;;;5076626;28;20028;-70
2021/12/29 05:36:49;;;;;;;12.23;3.83;;;11.00;87.10;;;;;;5075234;28;20071;-70
2021/12/29 05:39:15;;;;;;;12.15;4.00;;;11.00;87.00;;;;;;5075205;28;20068;-70
2021/12/29 05:41:40;;;;;;;10.23;4.25;;;11.00;87.00;;;;;;5075328;28;20128;-72
2021/12/29 05:44:06;;;;;;;8.27;4.47;;;10.90;87.00;;;;;;5075067;28;20111;-72
2021/12/29 05:46:32;;;;;;;7.22;3.88;;;11.00;87.10;;;;;;5075477;28;20028;-72
2021/12/29 05:48:58;;;;;;;9.07;4.15;;;11.00;87.00;;;;;;5075592;28;20115;-71
2021/12/29 05:51:24;;;;;;;8.95;4.35;;;11.00;87.00;;;;;;5075954;28;20028;-72
2021/12/29 05:53:50;;;;;;;8.35;4.28;;;11.00;87.00;;;;;;5075341;28;20028;-73
2021/12/29 05:56:16;;;;;;;8.38;4.03;;;10.90;87.00;;;;;;5076890;28;20047;-70
2021/12/29 05:58:42;;;;;;;8.35;4.75;;;11.00;87.10;;;;;;5075616;28;20042;-71
2021/12/29 06:01:09;;;;;;;9.68;4.65;;;11.00;87.10;;;;;;5074409;28;20025;-70
2021/12/29 06:03:36;;;;;;;8.95;4.30;;;10.90;87.10;;;;;;5073930;28;20361;-71
2021/12/29 06:06:02;;;;;;;9.43;4.85;;;10.90;87.10;;;;;;5074487;28;20407;-71
2021/12/29 06:08:28;;;;;;;8.77;4.45;;;10.90;87.20;;;;;;5075424;28;20342;-74
2021/12/29 06:10:53;;;;;;;8.55;4.50;;;10.90;87.20;;;;;;5074557;28;20085;-73
2021/12/29 06:13:19;;;;;;;9.52;4.60;;;10.90;87.30;;;;;;5075551;28;20027;-73
2021/12/29 06:15:45;;;;;;;8.43;4.20;;;10.90;87.30;;;;;;5075244;28;20089;-71
2021/12/29 06:18:11;;;;;;;7.78;3.95;;;11.00;87.30;;;;;;5072320;28;20044;-71
2021/12/29 06:20:38;;;;;;;8.35;4.15;;;11.00;87.30;;;;;;5071203;28;20033;-73
2021/12/29 06:23:08;;;;;;;7.53;4.07;;;11.00;87.30;;;;;;5074317;28;20028;-73
2021/12/29 06:25:34;;;;;;;8.85;4.32;;;11.00;87.30;;;;;;5073477;28;20021;-72
2021/12/29 06:27:59;;;;;;;7.82;3.70;;;10.90;87.30;;;;;;5074181;28;20029;-72
2021/12/29 06:30:25;;;;;;;7.95;4.25;;;11.00;87.30;;;;;;5073129;28;20051;-73
2021/12/29 06:32:51;;;;;;;7.78;4.32;;;11.00;87.30;;;;;;5057527;28;20149;-73
2021/12/29 06:35:16;;;;;;;9.85;4.00;;;11.00;87.30;;;;;;5074205;28;20028;-71
2021/12/29 06:37:43;;;;;;;7.55;4.05;;;11.00;87.30;;;;;;5074947;28;20040;-71
2021/12/29 06:40:11;;;;;;;8.02;4.10;;;11.00;87.30;;;;;;5075756;28;20028;-71
2021/12/29 06:42:37;;;;;;;7.45;3.45;;;11.00;87.40;;;;;;5074404;28;20389;-72
2021/12/29 06:45:03;;;;;;;7.65;3.78;;;11.00;87.40;;;;;;5074341;28;20059;-73
2021/12/29 06:47:28;;;;;;;7.05;3.90;;;11.00;87.40;;;;;;5074346;28;20020;-73
2021/12/29 06:49:54;;;;;;;8.45;4.38;;;11.00;87.40;;;;;;5074081;28;20021;-74
2021/12/29 06:52:20;;;;;;;8.02;3.83;;;11.00;87.40;;;;;;5074798;28;20032;-73
2021/12/29 06:54:46;;;;;;;8.43;4.13;;;11.00;87.40;;;;;;5075190;28;20024;-73
2021/12/29 06:57:12;;;;;;;7.28;3.58;;;10.90;87.30;;;;;;5074304;28;20054;-74
2021/12/29 06:59:38;;;;;;;6.50;3.53;;;11.00;87.40;;;;;;5075285;28;20032;-74
2021/12/29 07:02:04;;;;;;;8.48;4.45;;;11.00;87.40;;;;;;5075692;28;20059;-73
2021/12/29 07:04:30;;;;;;;7.53;3.30;;;11.00;87.40;;;;;;5075059;28;20032;-73
2021/12/29 07:06:56;;;;;;;6.35;3.45;;;11.00;87.40;;;;;;5057318;28;20024;-71
2021/12/29 07:09:22;;;;;;;7.43;3.90;;;11.00;87.40;;;;;;5074027;28;20115;-73
2021/12/29 07:11:48;;;;;;;8.70;3.88;;;11.00;87.40;;;;;;5057442;28;20078;-74
2021/12/29 07:14:14;;;;;;;7.95;3.90;;;11.00;87.40;;;;;;5073121;28;20024;-74
2021/12/29 07:16:43;;;;;;;8.38;3.88;;;11.00;87.40;;;;;;5073681;28;20128;-73
2021/12/29 07:19:09;;;;;;;9.80;3.78;;;11.00;87.50;;;;;;5073975;28;20051;-73
2021/12/29 07:21:34;;;;;;;11.20;3.90;;;11.10;87.40;;;;;;5074138;28;20025;-71
2021/12/29 07:24:00;;;;;;;8.07;4.03;;;11.10;87.30;;;;;;5074318;28;20043;-71
2021/12/29 07:26:26;;;;;;;8.88;4.70;;;11.10;87.20;;;;;;5069943;28;20021;-73
2021/12/29 07:28:52;;;;;;;9.27;4.63;;;11.10;87.20;;;;;;5056485;28;20421;-74
2021/12/29 07:31:19;;;;;;;14.32;5.35;;;11.10;87.10;;;;;;5069263;28;20453;-71
2021/12/29 07:33:47;;;;;;;10.88;4.93;;;11.10;87.10;;;;;;5070234;28;20027;-72
2021/12/29 07:36:13;;;;;;;13.85;4.47;;;11.10;87.00;;;;;;5053886;28;20453;-72
2021/12/29 07:38:39;;;;;;;11.90;5.72;;;11.10;87.00;;;;;;5070955;28;20123;-72
2021/12/29 07:41:05;;;;;;;12.90;5.22;;;11.10;87.00;;;;;;5070139;28;20116;-72
2021/12/29 07:43:31;;;;;;;11.82;4.93;;;11.10;87.00;;;;;;5072917;28;20100;-70
2021/12/29 07:45:58;;;;;;;14.52;6.15;;;11.10;86.90;;;;;;5070658;28;20063;-71
2021/12/29 07:48:27;;;;;;;11.98;5.15;;;11.10;87.00;;;;;;5070607;28;20052;-71
2021/12/29 07:50:53;;;;;;;9.30;5.43;;;11.10;87.00;;;;;;5072468;28;20093;-70
2021/12/29 07:53:20;;;;;;;12.32;5.13;;;11.00;86.90;;;;;;5073522;28;20021;-71
2021/12/29 07:55:45;;;;;;;10.18;4.80;;;11.00;86.90;;;;;;5069542;28;20111;-70
2021/12/29 07:58:11;;;;;;;13.45;5.65;;;11.00;86.90;;;;;;5072204;28;20170;-70
2021/12/29 08:00:37;;;;;;;9.40;5.13;;;11.00;86.90;;;;;;5053986;28;20039;-70
2021/12/29 08:03:03;;;;;;;13.85;5.55;;;11.00;86.90;;;;;;5070494;28;20028;-70
2021/12/29 08:05:29;;;;;;;10.85;5.63;;;11.00;86.90;;;;;;5071901;28;20473;-71
2021/12/29 08:07:55;;;;;;;11.80;4.97;;;11.00;86.80;;;;;;5072007;28;20029;-71
2021/12/29 08:10:21;;;;;;;10.73;5.38;;;11.00;86.80;;;;;;5071932;28;20021;-71
2021/12/29 08:12:46;;;;;;;8.20;4.85;;;11.00;86.80;;;;;;5069940;28;20024;-70
2021/12/29 08:15:12;;;;;;;10.65;5.20;;;11.00;86.80;;;;;;5071360;28;20025;-70
2021/12/29 08:17:39;;;;;;;12.15;5.85;;;11.00;86.80;;;;;;5068930;28;20108;-71
2021/12/29 08:20:07;;;;;;;8.70;5.10;;;11.00;86.80;;;;;;5070492;28;20125;-73
2021/12/29 08:22:33;;;;;;;12.23;5.60;;;11.00;86.70;;;;;;5067645;28;20108;-68
2021/12/29 08:24:59;;;;;;;13.00;5.45;;;11.00;86.70;;;;;;5051273;28;20560;-70
2021/12/29 08:27:25;;;;;;;11.35;5.70;;;11.00;86.60;;;;;;5067759;28;20449;-69
2021/12/29 08:29:50;;;;;;;10.85;6.18;;;11.00;86.60;;;;;;5072764;28;20021;-69
2021/12/29 08:32:16;;;;;;;10.93;5.38;;;11.00;86.60;;;;;;5074761;28;20035;-69
2021/12/29 08:34:42;;;;;;;11.82;6.53;;;11.00;86.60;;;;;;5076451;28;20420;-71
2021/12/29 08:37:07;;;;;;;8.63;5.43;;;11.00;86.60;;;;;;5074935;28;20112;-69
2021/12/29 08:39:33;;;;;;;12.80;5.80;;;11.00;86.60;;;;;;5058297;28;20040;-69
2021/12/29 08:41:59;;;;;;;11.20;5.80;;;11.00;86.60;;;;;;5075631;28;20024;-66
2021/12/29 08:44:24;;;;;;;11.23;6.30;;;11.00;86.60;;;;;;5074253;28;20183;-65
2021/12/29 08:46:50;;;;;;;14.20;6.45;;;11.00;86.60;;;;;;5073494;28;20028;-67
2021/12/29 08:49:15;;;;;;;12.07;6.82;;;11.00;86.50;;;;;;5073464;28;20028;-66
2021/12/29 08:51:41;;;;;;;11.30;5.82;;;11.00;86.50;;;;;;5073444;28;20031;-67
2021/12/29 08:54:09;;;;;;;14.38;6.43;;;11.10;87.20;;;;;;5073629;28;20028;-64
2021/12/29 08:56:35;;;;;;;12.45;6.25;;;11.00;86.50;;;;;;5068451;28;20033;-65
2021/12/29 08:59:02;;;;;;;12.80;7.13;;;11.00;86.50;;;;;;5076374;28;20024;-64
2021/12/29 09:01:27;;;;;;;13.68;6.70;;;11.00;86.50;;;;;;5056540;28;20492;-64
2021/12/29 09:03:53;;;;;;;11.52;6.43;;;11.10;86.50;;;;;;5073686;28;20056;-67
2021/12/29 09:06:19;;;;;;;15.35;7.53;;;11.10;86.50;;;;;;5056799;28;20024;-66
2021/12/29 09:08:45;;;;;;;13.23;7.15;;;11.10;86.50;;;;;;5072739;28;20050;-64
2021/12/29 09:11:12;;;;;;;12.63;6.47;;;11.10;86.50;;;;;;5069180;28;20603;-64
2021/12/29 09:13:39;;;;;;;13.40;7.07;;;11.10;86.50;;;;;;5053026;28;20036;-66
2021/12/29 09:16:05;;;;;;;13.13;6.30;;;11.10;86.50;;;;;;5072999;28;20029;-66
2021/12/29 09:18:33;;;;;;;10.05;6.88;;;11.10;86.50;;;;;;5073384;28;20036;-67
2021/12/29 09:21:12;;;;;;;14.93;7.93;;;11.10;86.50;;;;;;5074577;28;20029;-66
2021/12/29 09:23:38;;;;;;;12.45;6.93;;;11.10;86.40;;;;;;5071885;28;20148;-66
2021/12/29 09:26:05;;;;;;;11.73;6.90;;;11.10;86.40;;;;;;5065180;28;20174;-65
2021/12/29 09:28:32;;;;;;;12.10;7.32;;;11.10;86.40;;;;;;5063931;28;20040;-64
2021/12/29 09:30:59;;;;;;;13.93;7.30;;;11.10;86.40;;;;;;5055511;28;20048;-65
2021/12/29 09:33:24;;;;;;;12.15;8.00;;;11.10;86.40;;;;;;5060142;28;20108;-64
2021/12/29 09:35:52;;;;;;;14.35;7.70;;;11.10;86.40;;;;;;5042102;28;20116;-65
2021/12/29 09:38:19;;;;;;;12.35;6.97;;;11.10;86.30;;;;;;5054668;28;20036;-64
2021/12/29 09:40:47;;;;;;;12.80;8.00;;;11.10;86.30;;;;;;5060509;28;20112;-64
2021/12/29 09:43:14;;;;;;;14.43;8.65;;;11.10;86.20;;;;;;5058536;28;20063;-64
2021/12/29 09:45:41;;;;;;;13.93;8.50;;;11.10;86.20;;;;;;5055433;28;20049;-64
2021/12/29 09:48:08;;;;;;;12.43;7.95;;;11.10;86.20;;;;;;5063766;28;20036;-64
2021/12/29 09:50:34;;;;;;;15.40;8.68;;;11.10;86.20;;;;;;5059657;28;20460;-65
2021/12/29 09:53:00;;;;;;;13.60;8.07;;;11.10;86.20;;;;;;5060635;28;20364;-66
2021/12/29 09:55:27;;;;;;;12.70;7.88;;;11.20;86.20;;;;;;5062308;28;20031;-65
2021/12/29 09:57:56;;;;;;;13.65;7.68;;;11.20;86.20;;;;;;5066272;28;20025;-65
2021/12/29 10:00:46;;;;;;;12.10;7.90;;;11.20;86.10;;;;;;5056005;28;20090;-65
2021/12/29 10:03:15;;;;;;;17.13;8.57;;;11.20;86.00;;;;;;5042587;28;20028;-65
2021/12/29 10:05:43;;;;;;;13.73;7.57;;;11.20;86.00;;;;;;5041347;28;20482;-65
2021/12/29 10:08:12;;;;;;;13.73;7.50;;;11.20;86.00;;;;;;5069546;28;20028;-65
2021/12/29 10:10:41;;;;;;;11.77;7.80;;;11.20;86.00;;;;;;5057353;28;20032;-65
2021/12/29 10:13:09;;;;;;;14.93;8.55;;;11.20;86.00;;;;;;5065225;28;20441;-65
2021/12/29 10:15:37;;;;;;;15.43;9.48;;;11.20;86.00;;;;;;5055054;28;20058;-65
2021/12/29 10:18:16;;;;;;;12.30;7.72;;;11.20;86.00;;;;;;5062159;28;20051;-65
2021/12/29 10:20:47;;;;;;;11.77;7.65;;;11.20;85.90;;;;;;5063051;28;20029;-65
2021/12/29 10:23:20;;;;;;;14.27;7.32;;;11.20;85.90;;;;;;5043082;28;20024;-65
2021/12/29 10:25:45;;;;;;;15.45;9.20;;;11.20;85.90;;;;;;5055790;28;20024;-65
2021/12/29 10:28:19;;;;;;;13.38;8.13;;;11.30;85.90;;;;;;5060291;28;20035;-65
2021/12/29 10:30:44;;;;;;;15.75;8.40;;;11.30;85.90;;;;;;5067321;28;20094;-67
2021/12/29 10:33:11;;;;;;;14.43;8.40;;;11.30;85.90;;;;;;5061604;28;20029;-65
2021/12/29 10:35:37;;;;;;;11.93;7.70;;;11.30;85.90;;;;;;5054989;28;20618;-65
2021/12/29 10:38:20;;;;;;;12.38;7.95;;;11.30;85.90;;;;;;5072737;28;20025;-66
2021/12/29 10:40:46;;;;;;;12.35;7.38;;;11.30;85.80;;;;;;5061225;28;20370;-66
2021/12/29 10:43:12;;;;;;;12.80;8.00;;;11.30;85.70;;;;;;5068155;28;20024;-67
2021/12/29 10:45:43;;;;;;;13.57;7.82;;;11.40;85.70;;;;;;5054325;28;20036;-72
2021/12/29 10:48:21;;;;;;;12.68;7.60;;;11.40;85.70;;;;;;5068794;28;20077;-71
2021/12/29 10:50:56;;;;;;;14.18;7.15;;;11.40;85.50;;;;;;5061994;28;20059;-72
2021/12/29 10:53:23;;;;;;;14.43;7.90;;;11.40;85.40;;;;;;5063366;28;20032;-71
2021/12/29 10:55:49;;;;;;;12.45;7.20;;;11.40;85.40;;;;;;5064772;28;20064;-72
2021/12/29 10:58:19;;;;;;;12.15;8.00;;;11.40;85.30;;;;;;5069207;28;20040;-72
2021/12/29 11:01:05;;;;;;;14.23;8.27;;;11.50;85.30;;;;;;5068442;28;20044;-72
2021/12/29 11:03:33;;;;;;;14.63;7.20;;;11.50;85.30;;;;;;5069408;28;20024;-71
2021/12/29 11:06:01;;;;;;;12.05;7.80;;;11.50;85.20;;;;;;5071444;28;20101;-71
2021/12/29 11:08:44;;;;;;;12.85;7.20;;;11.50;85.20;;;;;;5071579;28;20028;-71
2021/12/29 11:11:10;;;;;;;13.27;8.00;;;11.50;85.10;;;;;;5072425;28;20338;-71
2021/12/29 11:13:36;;;;;;;11.32;8.43;;;11.50;85.10;;;;;;5071978;28;20039;-71
2021/12/29 11:16:04;;;;;;;12.05;7.18;;;11.60;85.00;;;;;;5055463;28;20356;-71
2021/12/29 11:18:43;;;;;;;13.30;7.25;;;11.60;84.90;;;;;;5071298;28;20024;-71
2021/12/29 11:21:10;;;;;;;10.38;6.60;;;11.60;84.80;;;;;;5070339;28;20024;-71
2021/12/29 11:23:41;;;;;;;11.70;6.50;;;11.70;84.80;;;;;;5071861;28;20032;-71
2021/12/29 11:26:11;;;;;;;11.82;6.90;;;11.70;84.70;;;;;;5072286;28;20491;-70
2021/12/29 11:28:37;;;;;;;11.65;6.35;;;11.70;84.60;;;;;;5055718;28;20074;-71
2021/12/29 11:31:05;;;;;;;11.38;6.60;;;11.70;84.50;;;;;;5072114;28;20465;-70
2021/12/29 11:33:32;;;;;;;12.50;7.18;;;11.70;84.30;;;;;;5071800;28;20017;-71
2021/12/29 11:35:58;;;;;;;14.68;6.75;;;11.70;84.30;;;;;;5072937;28;20033;-71
2021/12/29 11:38:26;;;;;;;12.15;6.95;;;11.70;84.20;;;;;;5072743;28;20035;-70
2021/12/29 11:40:58;;;;;;;13.52;7.47;;;11.70;84.20;;;;;;5072298;28;20443;-70
2021/12/29 11:43:25;;;;;;;11.00;6.93;;;11.70;84.80;;;;;;5072069;28;20047;-71
2021/12/29 11:45:53;;;;;;;11.52;7.60;;;11.70;84.10;;;;;;5072022;28;20032;-70
2021/12/29 11:48:21;;;;;;;12.23;7.60;;;11.60;84.00;;;;;;5071069;28;20468;-71
2021/12/29 11:50:59;;;;;;;13.05;7.43;;;11.60;84.00;;;;;;5072914;28;20027;-70
2021/12/29 11:53:47;;;;;;;13.32;7.43;;;11.60;83.90;;;;;;5071475;28;20434;-71
2021/12/29 11:56:17;;;;;;;12.75;8.00;;;11.60;83.90;;;;;;5070779;28;20093;-70
2021/12/29 11:58:44;;;;;;;12.00;7.88;;;11.60;84.00;;;;;;5071417;28;20048;-71
2021/12/29 12:01:17;;;;;;;14.50;8.07;;;11.60;84.00;;;;;;5052571;28;20024;-71
2021/12/29 12:03:47;;;;;;;12.55;7.72;;;11.60;83.80;;;;;;5071583;28;20360;-71
2021/12/29 12:06:32;;;;;;;11.50;7.75;;;11.60;83.80;;;;;;5055018;28;20365;-71
2021/12/29 12:09:15;;;;;;;11.85;7.68;;;11.60;83.80;;;;;;5069706;28;20024;-71
2021/12/29 12:11:54;;;;;;;11.65;7.47;;;11.60;83.80;;;;;;5052278;28;20013;-71
2021/12/29 12:14:32;;;;;;;11.50;7.78;;;11.60;83.80;;;;;;5054131;28;20102;-72
2021/12/29 12:17:00;;;;;;;11.90;7.45;;;11.50;83.70;;;;;;5068204;28;20047;-72
2021/12/29 12:19:29;;;;;;;12.77;8.57;;;11.50;83.80;;;;;;5067330;28;20032;-72
2021/12/29 12:22:11;;;;;;;12.50;7.60;;;11.50;83.80;;;;;;5068855;28;20373;-71
2021/12/29 12:24:50;;;;;;;14.32;7.20;;;11.50;83.70;;;;;;5068565;28;20127;-72
2021/12/29 12:27:35;;;;;;;12.27;8.20;;;11.60;83.80;;;;;;5064386;28;20373;-72
2021/12/29 12:30:14;;;;;;;12.35;6.82;;;11.60;83.70;;;;;;5047007;28;20040;-70
2021/12/29 12:32:47;;;;;;;11.63;7.72;;;11.60;83.70;;;;;;5066100;28;20356;-70
2021/12/29 12:35:25;;;;;;;12.18;7.50;;;11.60;83.70;;;;;;5068977;28;20034;-68
2021/12/29 12:37:51;;;;;;;10.68;7.05;;;11.60;83.60;;;;;;5064404;28;20441;-68
2021/12/29 12:40:29;;;;;;;11.32;7.47;;;11.60;83.60;;;;;;5052322;28;20043;-67
2021/12/29 12:43:10;;;;;;;11.05;7.55;;;11.60;83.50;;;;;;5064941;28;20056;-67
2021/12/29 12:45:39;;;;;;;12.55;7.10;;;11.60;83.50;;;;;;5069439;28;20094;-69
2021/12/29 12:48:11;;;;;;;11.77;7.72;;;11.60;83.50;;;;;;5064429;28;20098;-73
2021/12/29 12:50:40;;;;;;;15.48;8.50;;;11.60;83.50;;;;;;5070801;28;20036;-72